Time;durP1;ratioP1;P1;durP2;ratioP2;P2;SDS_P1;SDS_P2;PMS_P1;PMS_P2;Temp;Humidity;BMP_temperature;BMP_pressure;BME280_temperature;BME280_humidity;BME280_pressure;Samples;Min_cycle;Max_cycle;Signal;HPM_P1;HPM_P2
2023/04/08 00:00:41;;;;;;;0.10;0.10;;;8.50;99.90;;;;;;5055935;28;20178;-81
2023/04/08 00:03:06;;;;;;;0.10;0.10;;;8.60;99.90;;;;;;5062280;28;20223;-81
2023/04/08 00:05:32;;;;;;;0.10;0.10;;;8.70;99.90;;;;;;5061388;28;20189;-81
2023/04/08 00:07:59;;;;;;;0.10;0.10;;;8.70;99.90;;;;;;5060914;28;20235;-81
2023/04/08 00:10:25;;;;;;;0.10;0.10;;;8.80;99.90;;;;;;5061407;28;20223;-81
2023/04/08 00:12:51;;;;;;;0.10;0.10;;;8.80;99.90;;;;;;5064343;28;20280;-81
2023/04/08 00:15:16;;;;;;;0.10;0.10;;;8.90;99.90;;;;;;5057220;28;20188;-81
2023/04/08 00:17:42;;;;;;;0.10;0.10;;;8.80;99.90;;;;;;5063728;28;20185;-81
2023/04/08 00:20:08;;;;;;;0.10;0.10;;;8.80;99.90;;;;;;5065503;28;20192;-81
2023/04/08 00:22:35;;;;;;;0.10;0.10;;;8.90;99.90;;;;;;5059889;28;20309;-81
2023/04/08 00:25:01;;;;;;;0.10;0.10;;;8.90;99.90;;;;;;5063119;28;20220;-81
2023/04/08 00:27:27;;;;;;;0.10;0.10;;;8.90;99.90;;;;;;5059157;28;20205;-81
2023/04/08 00:29:52;;;;;;;0.10;0.10;;;8.90;99.90;;;;;;5061309;28;20611;-80
2023/04/08 00:32:18;;;;;;;0.10;0.10;;;9.10;99.90;;;;;;5061275;28;20196;-81
2023/04/08 00:34:43;;;;;;;0.10;0.10;;;9.10;99.90;;;;;;5056554;28;20196;-81
2023/04/08 00:37:09;;;;;;;0.10;0.10;;;9.10;99.90;;;;;;5060326;28;20282;-81
2023/04/08 00:39:36;;;;;;;0.10;0.10;;;9.10;99.90;;;;;;5063191;28;20196;-81
2023/04/08 00:42:02;;;;;;;0.00;0.00;;;9.20;99.90;;;;;;5058188;28;20315;-81
2023/04/08 00:44:27;;;;;;;0.10;0.10;;;9.20;99.90;;;;;;5063486;28;20268;-82
2023/04/08 00:46:53;;;;;;;0.10;0.10;;;9.30;99.90;;;;;;5062621;28;20243;-81
2023/04/08 00:49:19;;;;;;;0.10;0.10;;;9.20;99.90;;;;;;5064916;28;20189;-81
2023/04/08 00:51:44;;;;;;;0.10;0.10;;;9.10;99.90;;;;;;5064026;28;20396;-81
2023/04/08 00:54:10;;;;;;;0.10;0.10;;;9.00;99.90;;;;;;5058259;28;20176;-81
2023/04/08 00:56:36;;;;;;;0.10;0.10;;;9.00;99.90;;;;;;5059983;28;20185;-80
2023/04/08 00:59:02;;;;;;;0.10;0.10;;;9.00;99.90;;;;;;5055650;28;20272;-81
2023/04/08 01:01:56;;;;;;;0.10;0.10;;;9.00;99.90;;;;;;5063146;28;20168;-81
2023/04/08 01:04:39;;;;;;;0.10;0.10;;;8.90;99.90;;;;;;5061761;28;20188;-81
2023/04/08 01:07:18;;;;;;;0.10;0.10;;;8.90;99.90;;;;;;5062053;28;20339;-81
2023/04/08 01:09:47;;;;;;;0.10;0.10;;;8.80;99.90;;;;;;5061775;28;20208;-81
2023/04/08 01:12:20;;;;;;;0.10;0.10;;;8.80;99.90;;;;;;5057038;28;20205;-81
2023/04/08 01:14:48;;;;;;;0.10;0.10;;;8.80;99.90;;;;;;5060962;28;20181;-81
2023/04/08 01:17:16;;;;;;;0.10;0.10;;;8.90;99.90;;;;;;5061115;28;20177;-81
2023/04/08 01:19:43;;;;;;;0.10;0.10;;;8.90;99.90;;;;;;5061169;28;20189;-81
2023/04/08 01:22:24;;;;;;;0.10;0.10;;;8.90;99.90;;;;;;5062038;28;20262;-81
2023/04/08 01:25:00;;;;;;;0.10;0.10;;;8.90;99.90;;;;;;5062851;28;20185;-81
2023/04/08 01:27:28;;;;;;;0.10;0.10;;;8.90;99.90;;;;;;5056902;28;20200;-81
2023/04/08 01:29:55;;;;;;;0.10;0.10;;;8.80;99.90;;;;;;5060719;28;20185;-81
2023/04/08 01:32:20;;;;;;;0.10;0.10;;;8.80;99.90;;;;;;5058918;28;20204;-81
2023/04/08 01:34:46;;;;;;;0.10;0.10;;;8.80;99.90;;;;;;5059793;28;20189;-81
2023/04/08 01:37:13;;;;;;;0.10;0.10;;;8.90;99.90;;;;;;5062835;28;20322;-81
2023/04/08 01:39:40;;;;;;;0.00;0.00;;;9.00;99.90;;;;;;5058464;28;20192;-82
2023/04/08 01:42:07;;;;;;;0.10;0.10;;;9.00;99.90;;;;;;5059509;28;20729;-81
2023/04/08 01:44:35;;;;;;;0.00;0.00;;;9.10;99.90;;;;;;5058886;28;20184;-81
2023/04/08 01:47:02;;;;;;;0.10;0.10;;;9.10;99.90;;;;;;5066425;28;20292;-81
2023/04/08 01:49:29;;;;;;;0.10;0.10;;;9.00;99.90;;;;;;5064048;28;20185;-81
2023/04/08 01:51:57;;;;;;;0.10;0.10;;;9.10;99.90;;;;;;5066361;28;20186;-81
2023/04/08 01:54:23;;;;;;;0.10;0.10;;;9.10;99.90;;;;;;5065041;28;20271;-81
2023/04/08 01:56:52;;;;;;;0.10;0.10;;;9.10;99.90;;;;;;5063298;28;20726;-81
2023/04/08 01:59:20;;;;;;;0.10;0.10;;;9.00;99.90;;;;;;5061007;28;20189;-81
2023/04/08 02:01:47;;;;;;;0.10;0.10;;;9.10;99.90;;;;;;5065604;28;20294;-82
2023/04/08 02:04:13;;;;;;;0.10;0.10;;;9.20;99.90;;;;;;5066829;28;20576;-81
2023/04/08 02:06:38;;;;;;;0.10;0.10;;;9.10;99.90;;;;;;5064561;28;20783;-81
2023/04/08 02:09:04;;;;;;;0.10;0.10;;;9.10;99.90;;;;;;5057362;28;20495;-81
2023/04/08 02:11:30;;;;;;;0.10;0.10;;;9.10;99.90;;;;;;5059522;28;20199;-81
2023/04/08 02:13:57;;;;;;;0.10;0.10;;;9.00;99.90;;;;;;5061277;28;20209;-81
2023/04/08 02:16:31;;;;;;;0.10;0.10;;;8.90;99.90;;;;;;5062310;28;20184;-81
2023/04/08 02:19:18;;;;;;;0.10;0.10;;;8.80;99.90;;;;;;5061036;28;20561;-81
2023/04/08 02:21:51;;;;;;;0.10;0.10;;;8.80;99.90;;;;;;5063859;28;20181;-81
2023/04/08 02:24:19;;;;;;;0.10;0.10;;;8.70;99.90;;;;;;5061043;28;20175;-81
2023/04/08 02:26:46;;;;;;;0.10;0.10;;;8.70;99.90;;;;;;5061594;28;20216;-82
2023/04/08 02:29:14;;;;;;;0.10;0.10;;;8.60;99.90;;;;;;5063093;28;20297;-82
2023/04/08 02:31:44;;;;;;;0.10;0.10;;;8.60;99.90;;;;;;5060923;28;20185;-81
2023/04/08 02:34:11;;;;;;;0.10;0.10;;;8.60;99.90;;;;;;5064834;28;20185;-81
2023/04/08 02:36:38;;;;;;;0.10;0.10;;;8.60;99.90;;;;;;5065120;28;20184;-81
2023/04/08 02:39:03;;;;;;;0.10;0.10;;;8.50;99.90;;;;;;5062687;28;20242;-81
2023/04/08 02:41:30;;;;;;;0.10;0.10;;;8.40;99.90;;;;;;5058545;28;20196;-81
2023/04/08 02:43:56;;;;;;;0.10;0.10;;;8.40;99.90;;;;;;5065449;28;20295;-81
2023/04/08 02:46:21;;;;;;;0.10;0.10;;;8.40;99.90;;;;;;5063925;28;20276;-81
2023/04/08 02:48:47;;;;;;;0.10;0.10;;;8.30;99.90;;;;;;5056420;28;20212;-81
2023/04/08 02:51:12;;;;;;;0.10;0.10;;;8.20;99.90;;;;;;5065298;28;20189;-81
2023/04/08 02:53:38;;;;;;;0.10;0.10;;;8.20;99.90;;;;;;5058967;28;20289;-80
2023/04/08 02:56:04;;;;;;;0.10;0.10;;;8.20;99.90;;;;;;5058839;28;20208;-81
2023/04/08 02:58:30;;;;;;;0.10;0.10;;;8.10;99.90;;;;;;5064752;28;20188;-81
2023/04/08 03:00:55;;;;;;;0.10;0.10;;;8.00;99.90;;;;;;5064566;28;20195;-81
2023/04/08 03:03:28;;;;;;;0.10;0.10;;;8.00;99.90;;;;;;5062223;28;20219;-80
2023/04/08 03:05:54;;;;;;;0.10;0.10;;;7.90;99.90;;;;;;5058757;28;20238;-81
2023/04/08 03:08:20;;;;;;;0.10;0.10;;;8.00;99.90;;;;;;5061615;28;20252;-81
2023/04/08 03:10:46;;;;;;;0.10;0.10;;;8.00;99.90;;;;;;5064347;28;20188;-81
2023/04/08 03:13:12;;;;;;;0.10;0.10;;;7.90;99.90;;;;;;5062392;28;20211;-81
2023/04/08 03:15:37;;;;;;;0.10;0.10;;;7.90;99.90;;;;;;5058947;28;20188;-81
2023/04/08 03:18:03;;;;;;;0.00;0.00;;;8.00;99.90;;;;;;5061045;28;20268;-80
2023/04/08 03:20:29;;;;;;;0.10;0.10;;;7.90;99.90;;;;;;5064692;28;20232;-81
2023/04/08 03:22:54;;;;;;;0.10;0.10;;;7.90;99.90;;;;;;5062163;28;20713;-81
2023/04/08 03:25:20;;;;;;;0.10;0.10;;;7.90;99.90;;;;;;5063372;28;20195;-81
2023/04/08 03:27:46;;;;;;;0.10;0.10;;;7.90;99.90;;;;;;5057255;28;20890;-81
2023/04/08 03:30:11;;;;;;;0.10;0.10;;;7.90;99.90;;;;;;5061538;28;20179;-79
2023/04/08 03:32:37;;;;;;;0.10;0.10;;;7.80;99.90;;;;;;5058588;28;20724;-79
2023/04/08 03:35:03;;;;;;;0.10;0.10;;;7.70;99.90;;;;;;5060556;28;20246;-79
2023/04/08 03:37:29;;;;;;;0.10;0.10;;;7.60;99.90;;;;;;5061284;28;20250;-79
2023/04/08 03:39:55;;;;;;;0.10;0.10;;;7.50;99.90;;;;;;5056511;28;20746;-79
2023/04/08 03:42:20;;;;;;;0.10;0.10;;;7.50;99.90;;;;;;5063954;28;20219;-79
2023/04/08 03:44:46;;;;;;;0.10;0.10;;;7.50;99.90;;;;;;5061936;28;20216;-79
2023/04/08 03:47:11;;;;;;;0.10;0.10;;;7.50;99.90;;;;;;5064687;28;20234;-79
2023/04/08 03:49:37;;;;;;;0.10;0.10;;;7.50;99.90;;;;;;5063831;28;20189;-79
2023/04/08 03:52:02;;;;;;;0.10;0.10;;;7.40;99.90;;;;;;5056929;28;20212;-79
2023/04/08 03:54:28;;;;;;;0.10;0.10;;;7.30;99.90;;;;;;5063556;28;20198;-79
2023/04/08 03:56:55;;;;;;;0.10;0.10;;;7.30;99.90;;;;;;5061437;28;20188;-81
2023/04/08 03:59:20;;;;;;;0.20;0.20;;;7.20;99.90;;;;;;5062587;28;21231;-79
2023/04/08 04:01:46;;;;;;;0.10;0.10;;;7.20;99.90;;;;;;5063294;28;20189;-79
2023/04/08 04:04:12;;;;;;;0.10;0.10;;;7.20;99.90;;;;;;5061945;28;20184;-79
2023/04/08 04:06:37;;;;;;;0.10;0.10;;;7.20;99.90;;;;;;5060566;28;20191;-79
2023/04/08 04:09:03;;;;;;;0.10;0.10;;;7.10;99.90;;;;;;5062875;28;20266;-79
2023/04/08 04:11:29;;;;;;;0.03;0.03;;;7.00;99.90;;;;;;5058999;28;20188;-79
2023/04/08 04:13:54;;;;;;;0.10;0.10;;;7.00;99.90;;;;;;5058960;28;20214;-79
2023/04/08 04:16:20;;;;;;;0.10;0.10;;;7.00;99.90;;;;;;5059513;28;20184;-79
2023/04/08 04:18:45;;;;;;;0.10;0.10;;;6.90;99.90;;;;;;5062778;28;20223;-80
2023/04/08 04:21:11;;;;;;;0.10;0.10;;;6.90;99.90;;;;;;5055887;28;20271;-81
2023/04/08 04:23:36;;;;;;;0.10;0.10;;;6.90;99.90;;;;;;5060996;28;20544;-79
2023/04/08 04:26:07;;;;;;;0.10;0.10;;;6.80;99.90;;;;;;5063378;28;20844;-79
2023/04/08 04:28:33;;;;;;;0.10;0.10;;;6.80;99.90;;;;;;5056814;28;20210;-79
2023/04/08 04:30:58;;;;;;;0.10;0.10;;;6.80;99.90;;;;;;5060666;28;20507;-79
2023/04/08 04:33:24;;;;;;;0.10;0.10;;;6.80;99.90;;;;;;5054233;28;20200;-79
2023/04/08 04:35:50;;;;;;;0.10;0.10;;;6.90;99.90;;;;;;5059628;28;20188;-79
2023/04/08 04:38:16;;;;;;;0.10;0.10;;;6.80;99.90;;;;;;5057762;28;20197;-79
2023/04/08 04:40:43;;;;;;;0.10;0.10;;;6.90;99.90;;;;;;5062503;28;20187;-79
2023/04/08 04:43:08;;;;;;;0.10;0.10;;;6.80;99.90;;;;;;5057750;28;20290;-79
2023/04/08 04:45:34;;;;;;;0.00;0.00;;;6.70;99.90;;;;;;5060372;28;20222;-81
2023/04/08 04:47:59;;;;;;;0.10;0.10;;;6.70;99.90;;;;;;5055713;28;20293;-80
2023/04/08 04:50:26;;;;;;;0.10;0.10;;;6.70;99.90;;;;;;5061137;28;20191;-80
2023/04/08 04:52:51;;;;;;;0.10;0.10;;;6.70;99.90;;;;;;5059029;28;20302;-80
2023/04/08 04:55:17;;;;;;;0.10;0.10;;;6.70;99.90;;;;;;5056815;28;20182;-81
2023/04/08 04:57:43;;;;;;;0.07;0.07;;;6.70;99.90;;;;;;5058429;28;20226;-79
2023/04/08 05:00:09;;;;;;;0.10;0.10;;;6.70;99.90;;;;;;5057543;28;20188;-80
2023/04/08 05:02:35;;;;;;;0.10;0.10;;;6.70;99.90;;;;;;5060307;28;20223;-81
2023/04/08 05:05:00;;;;;;;0.00;0.00;;;6.80;99.90;;;;;;5058372;28;20180;-80
2023/04/08 05:07:26;;;;;;;0.10;0.10;;;6.80;99.90;;;;;;5059870;28;20662;-80
2023/04/08 05:09:52;;;;;;;1.70;1.60;;;6.70;99.90;;;;;;5059472;28;20191;-80
2023/04/08 05:12:19;;;;;;;0.10;0.10;;;6.60;99.90;;;;;;5054615;28;20569;-80
2023/04/08 05:14:45;;;;;;;0.00;0.00;;;6.60;99.90;;;;;;5057749;28;20200;-80
2023/04/08 05:17:11;;;;;;;0.00;0.00;;;6.60;99.90;;;;;;5060020;28;20207;-82
2023/04/08 05:19:36;;;;;;;0.10;0.10;;;6.60;99.90;;;;;;5064301;28;20268;-83
2023/04/08 05:22:02;;;;;;;0.10;0.10;;;6.60;99.90;;;;;;5069395;28;20216;-82
2023/04/08 05:24:27;;;;;;;0.10;0.10;;;6.60;99.90;;;;;;5067123;28;20190;-82
2023/04/08 05:26:53;;;;;;;0.10;0.10;;;6.70;99.90;;;;;;5072121;28;20253;-81
2023/04/08 05:29:20;;;;;;;0.10;0.10;;;6.70;99.90;;;;;;5067219;28;20210;-81
2023/04/08 05:31:46;;;;;;;0.10;0.10;;;6.80;99.90;;;;;;5064120;28;20202;-81
2023/04/08 05:34:14;;;;;;;0.00;0.00;;;6.80;99.90;;;;;;5067760;28;20274;-82
2023/04/08 05:36:40;;;;;;;0.43;0.43;;;6.90;99.90;;;;;;5067671;28;20211;-81
2023/04/08 05:39:05;;;;;;;0.10;0.10;;;6.90;99.90;;;;;;5069732;28;20191;-81
2023/04/08 05:41:31;;;;;;;0.10;0.10;;;7.00;99.90;;;;;;5065002;28;20840;-81
2023/04/08 05:43:56;;;;;;;0.10;0.10;;;7.10;99.90;;;;;;5069775;28;20308;-81
2023/04/08 05:46:22;;;;;;;0.10;0.10;;;7.10;99.90;;;;;;5064840;28;20186;-82
2023/04/08 05:48:47;;;;;;;0.10;0.10;;;7.20;99.90;;;;;;5067364;28;20298;-82
2023/04/08 05:51:14;;;;;;;0.10;0.10;;;7.30;99.90;;;;;;5070090;28;20187;-82
2023/04/08 05:53:40;;;;;;;0.10;0.10;;;7.40;99.90;;;;;;5066961;28;20209;-82
2023/04/08 05:56:06;;;;;;;0.10;0.10;;;7.50;99.90;;;;;;5065202;28;20184;-82
2023/04/08 05:58:31;;;;;;;0.10;0.10;;;7.50;99.90;;;;;;5063324;28;20283;-82
2023/04/08 06:00:57;;;;;;;0.10;0.10;;;7.60;99.90;;;;;;5065894;28;20185;-81
2023/04/08 06:03:23;;;;;;;0.10;0.10;;;7.80;99.90;;;;;;5066232;28;20766;-82
2023/04/08 06:05:48;;;;;;;0.10;0.10;;;7.70;99.90;;;;;;5067595;28;20354;-82
2023/04/08 06:08:14;;;;;;;0.10;0.10;;;7.70;99.90;;;;;;5063708;28;20296;-82
2023/04/08 06:10:39;;;;;;;0.00;0.00;;;7.80;99.90;;;;;;5067395;28;20274;-82
2023/04/08 06:13:05;;;;;;;0.20;0.20;;;8.00;99.90;;;;;;5062917;28;20265;-81
2023/04/08 06:15:31;;;;;;;0.10;0.10;;;8.00;99.90;;;;;;5071132;28;20192;-81
2023/04/08 06:17:57;;;;;;;0.10;0.10;;;8.10;99.90;;;;;;5067588;28;20188;-81
2023/04/08 06:20:22;;;;;;;0.10;0.10;;;8.10;99.90;;;;;;5065177;28;20195;-82
2023/04/08 06:22:48;;;;;;;0.10;0.10;;;8.20;99.90;;;;;;5064705;28;20217;-81
2023/04/08 06:25:13;;;;;;;0.10;0.10;;;8.30;99.90;;;;;;5070013;28;20191;-81
2023/04/08 06:27:39;;;;;;;0.10;0.10;;;8.30;99.90;;;;;;5067189;28;20204;-81
2023/04/08 06:30:05;;;;;;;0.10;0.10;;;8.20;99.90;;;;;;5070344;28;20617;-81
2023/04/08 06:32:31;;;;;;;0.17;0.17;;;8.10;99.90;;;;;;5067814;28;20282;-82
2023/04/08 06:34:56;;;;;;;0.10;0.10;;;8.00;99.90;;;;;;5071682;28;20208;-82
2023/04/08 06:37:23;;;;;;;0.10;0.10;;;8.00;99.90;;;;;;5070965;28;20210;-82
2023/04/08 06:39:48;;;;;;;0.10;0.10;;;8.10;99.90;;;;;;5065747;28;20191;-81
2023/04/08 06:42:14;;;;;;;0.10;0.10;;;8.20;99.90;;;;;;5070710;28;20588;-81
2023/04/08 06:44:40;;;;;;;0.10;0.10;;;8.10;99.90;;;;;;5072459;28;20441;-80
2023/04/08 06:47:05;;;;;;;0.10;0.10;;;8.00;99.90;;;;;;5070537;28;20201;-81
2023/04/08 06:49:31;;;;;;;0.10;0.10;;;7.90;99.90;;;;;;5070225;28;21033;-81
2023/04/08 06:51:56;;;;;;;0.10;0.10;;;8.00;99.90;;;;;;5070863;28;20177;-81
2023/04/08 06:54:22;;;;;;;0.10;0.10;;;8.00;99.90;;;;;;5068893;28;20191;-81
2023/04/08 06:56:47;;;;;;;0.07;0.07;;;8.10;99.90;;;;;;5070096;28;20288;-81
2023/04/08 06:59:13;;;;;;;0.10;0.10;;;8.10;99.90;;;;;;5067114;28;20249;-81
2023/04/08 07:01:38;;;;;;;0.10;0.10;;;8.30;99.90;;;;;;5067605;28;20200;-82
2023/04/08 07:04:04;;;;;;;0.10;0.10;;;8.30;99.90;;;;;;5066822;28;20204;-82
2023/04/08 07:06:30;;;;;;;0.10;0.10;;;8.30;99.90;;;;;;5070827;28;20189;-82
2023/04/08 07:08:55;;;;;;;0.10;0.10;;;8.40;99.90;;;;;;5071369;28;20242;-81
2023/04/08 07:11:21;;;;;;;0.10;0.10;;;8.60;99.90;;;;;;5068505;28;20185;-81
2023/04/08 07:13:46;;;;;;;0.10;0.10;;;8.70;99.90;;;;;;5067535;28;20217;-82
2023/04/08 07:16:12;;;;;;;0.10;0.10;;;8.60;99.90;;;;;;5067306;28;20227;-82
2023/04/08 07:18:37;;;;;;;9.53;8.93;;;8.60;99.90;;;;;;5072434;28;20689;-81
2023/04/08 07:21:03;;;;;;;0.10;0.10;;;8.60;99.90;;;;;;5068773;28;20189;-82
2023/04/08 07:23:28;;;;;;;0.10;0.10;;;8.50;99.90;;;;;;5072387;28;20230;-81
2023/04/08 07:25:54;;;;;;;0.10;0.10;;;8.60;99.90;;;;;;5069516;28;20185;-82
2023/04/08 07:28:20;;;;;;;0.10;0.10;;;8.80;99.90;;;;;;5069471;28;20209;-81
2023/04/08 07:30:46;;;;;;;0.10;0.10;;;9.00;99.90;;;;;;5065341;28;20197;-81
2023/04/08 07:33:12;;;;;;;0.10;0.10;;;8.70;99.90;;;;;;5063672;28;20511;-81
2023/04/08 07:35:37;;;;;;;0.00;0.00;;;8.90;99.90;;;;;;5063670;28;20194;-81
2023/04/08 07:38:03;;;;;;;0.10;0.10;;;9.00;99.90;;;;;;5065752;28;20195;-81
2023/04/08 07:40:29;;;;;;;1.07;1.03;;;9.00;99.90;;;;;;5072604;28;20181;-81
2023/04/08 07:42:55;;;;;;;0.10;0.10;;;8.80;99.90;;;;;;5069518;28;20308;-81
2023/04/08 07:45:21;;;;;;;0.10;0.10;;;9.10;99.90;;;;;;5059651;28;20193;-81
2023/04/08 07:47:46;;;;;;;0.10;0.10;;;9.30;99.90;;;;;;5066404;28;20290;-80
2023/04/08 07:50:12;;;;;;;0.10;0.10;;;9.40;99.90;;;;;;5067856;28;20267;-81
2023/04/08 07:52:38;;;;;;;0.10;0.10;;;9.70;99.90;;;;;;5062791;28;20762;-81
2023/04/08 07:55:04;;;;;;;0.10;0.10;;;9.90;99.90;;;;;;5066604;28;20188;-80
2023/04/08 07:57:30;;;;;;;0.10;0.10;;;9.90;99.90;;;;;;5067824;28;20172;-81
2023/04/08 07:59:56;;;;;;;0.10;0.10;;;10.20;99.90;;;;;;5066505;28;20887;-81
2023/04/08 08:02:22;;;;;;;0.10;0.10;;;10.40;99.90;;;;;;5063780;28;20220;-80
2023/04/08 08:04:47;;;;;;;0.10;0.10;;;10.50;99.90;;;;;;5066285;28;20271;-81
2023/04/08 08:07:13;;;;;;;0.10;0.10;;;10.40;99.90;;;;;;5063458;28;20636;-81
2023/04/08 08:09:39;;;;;;;0.10;0.10;;;10.00;99.90;;;;;;5063904;28;20716;-81
2023/04/08 08:12:04;;;;;;;0.10;0.10;;;10.40;99.90;;;;;;5068858;28;20207;-81
2023/04/08 08:14:30;;;;;;;0.10;0.10;;;10.50;99.90;;;;;;5061085;28;20295;-80
2023/04/08 08:16:55;;;;;;;13.70;12.83;;;10.30;99.90;;;;;;5066752;28;20181;-81
2023/04/08 08:19:21;;;;;;;0.10;0.10;;;10.00;99.90;;;;;;5065006;28;20210;-81
2023/04/08 08:21:47;;;;;;;0.10;0.10;;;10.10;99.90;;;;;;5068429;28;20210;-80
2023/04/08 08:24:13;;;;;;;0.10;0.10;;;10.10;99.90;;;;;;5065086;28;20196;-80
2023/04/08 08:26:39;;;;;;;0.10;0.10;;;10.40;99.90;;;;;;5063917;28;20173;-83
2023/04/08 08:29:07;;;;;;;0.10;0.10;;;10.20;99.90;;;;;;5068836;28;20177;-82
2023/04/08 08:31:33;;;;;;;0.10;0.10;;;10.30;99.90;;;;;;5059891;28;20204;-81
2023/04/08 08:33:58;;;;;;;2.30;2.20;;;10.40;99.90;;;;;;5060483;28;20212;-80
2023/04/08 08:36:26;;;;;;;0.10;0.10;;;10.00;99.90;;;;;;5061530;28;20185;-81
2023/04/08 08:38:52;;;;;;;0.10;0.10;;;9.90;99.90;;;;;;5060523;28;20697;-80
2023/04/08 08:41:19;;;;;;;0.47;0.47;;;9.90;99.90;;;;;;5064189;28;20177;-80
2023/04/08 08:43:45;;;;;;;0.10;0.10;;;10.00;99.90;;;;;;5061915;28;20252;-80
2023/04/08 08:46:11;;;;;;;0.00;0.00;;;9.90;99.90;;;;;;5066805;28;20408;-81
2023/04/08 08:48:37;;;;;;;0.10;0.10;;;10.10;99.90;;;;;;5066101;28;20216;-81
2023/04/08 08:51:11;;;;;;;0.10;0.10;;;9.80;99.90;;;;;;5069326;28;20820;-81
2023/04/08 08:53:37;;;;;;;0.10;0.10;;;9.80;99.90;;;;;;5067277;28;20209;-81
2023/04/08 08:56:04;;;;;;;0.10;0.10;;;9.60;99.90;;;;;;5065199;28;20180;-81
2023/04/08 08:58:29;;;;;;;0.10;0.10;;;9.60;99.90;;;;;;5062699;28;20187;-81
2023/04/08 09:00:55;;;;;;;0.10;0.10;;;9.70;99.90;;;;;;5063991;28;20299;-80
2023/04/08 09:03:28;;;;;;;0.10;0.10;;;9.70;99.90;;;;;;5062380;28;20209;-81
2023/04/08 09:05:59;;;;;;;0.10;0.10;;;9.70;99.90;;;;;;5064878;28;20196;-81
2023/04/08 09:08:36;;;;;;;0.10;0.10;;;9.50;99.90;;;;;;5067114;28;20197;-80
2023/04/08 09:11:22;;;;;;;0.10;0.10;;;9.50;99.90;;;;;;5062622;28;20185;-81
2023/04/08 09:13:48;;;;;;;0.10;0.10;;;9.30;99.90;;;;;;5067236;28;20225;-81
2023/04/08 09:16:18;;;;;;;0.10;0.10;;;9.40;99.90;;;;;;5066046;28;20205;-79
2023/04/08 09:18:46;;;;;;;0.10;0.10;;;9.70;99.90;;;;;;5067353;28;20184;-80
2023/04/08 09:21:13;;;;;;;0.10;0.10;;;9.70;99.90;;;;;;5063642;28;20180;-81
2023/04/08 09:23:45;;;;;;;0.10;0.10;;;9.80;99.90;;;;;;5066587;28;20285;-81
2023/04/08 09:26:15;;;;;;;0.10;0.10;;;9.90;99.90;;;;;;5064727;28;20330;-80
2023/04/08 09:28:41;;;;;;;0.10;0.10;;;9.90;99.90;;;;;;5061040;28;20288;-80
2023/04/08 09:31:23;;;;;;;0.00;0.00;;;9.80;99.90;;;;;;5064217;28;20209;-80
2023/04/08 09:33:51;;;;;;;0.10;0.10;;;10.00;99.90;;;;;;5067580;28;20239;-80
2023/04/08 09:36:17;;;;;;;0.10;0.10;;;9.90;99.90;;;;;;5066796;28;20255;-80
2023/04/08 09:38:43;;;;;;;0.10;0.10;;;10.10;99.90;;;;;;5066989;28;20192;-80
2023/04/08 09:41:15;;;;;;;0.90;0.90;;;10.10;99.90;;;;;;5067425;28;20196;-81
2023/04/08 09:43:50;;;;;;;0.10;0.10;;;10.10;99.90;;;;;;5065946;28;20270;-81
2023/04/08 09:46:20;;;;;;;0.07;0.07;;;9.90;99.90;;;;;;5067094;28;20188;-81
2023/04/08 09:48:54;;;;;;;0.10;0.10;;;10.10;99.90;;;;;;5067180;28;20224;-81
2023/04/08 09:51:22;;;;;;;0.10;0.10;;;10.20;99.90;;;;;;5063449;28;20177;-81
2023/04/08 09:53:59;;;;;;;0.10;0.10;;;10.40;99.90;;;;;;5066923;28;20246;-81
2023/04/08 09:56:33;;;;;;;0.10;0.10;;;10.20;99.90;;;;;;5064547;28;20173;-81
2023/04/08 09:59:02;;;;;;;0.10;0.10;;;10.40;99.90;;;;;;5065224;28;20173;-81
2023/04/08 10:01:38;;;;;;;0.10;0.10;;;10.20;99.90;;;;;;5065362;28;20205;-80
2023/04/08 10:04:08;;;;;;;0.10;0.10;;;10.10;99.90;;;;;;5063020;28;20208;-79
2023/04/08 10:06:35;;;;;;;0.10;0.10;;;10.40;99.90;;;;;;5066715;28;20647;-80
2023/04/08 10:09:03;;;;;;;0.10;0.10;;;10.60;99.90;;;;;;5068279;28;20256;-80
2023/04/08 10:11:29;;;;;;;0.10;0.10;;;10.40;99.90;;;;;;5070009;28;20180;-80
2023/04/08 10:13:55;;;;;;;0.10;0.10;;;10.70;99.90;;;;;;5068749;28;20205;-80
2023/04/08 10:16:24;;;;;;;0.10;0.10;;;10.40;99.90;;;;;;5067016;28;20319;-80
2023/04/08 10:18:54;;;;;;;0.10;0.10;;;10.40;99.90;;;;;;5069223;28;20196;-80
2023/04/08 10:21:37;;;;;;;0.07;0.07;;;10.30;99.90;;;;;;5061773;28;20269;-79
2023/04/08 10:24:09;;;;;;;0.10;0.10;;;10.20;99.90;;;;;;5063733;28;20231;-80
2023/04/08 10:26:42;;;;;;;0.10;0.10;;;10.50;99.90;;;;;;5063564;28;20185;-80
2023/04/08 10:29:17;;;;;;;0.10;0.10;;;10.60;99.90;;;;;;5066157;28;20222;-80
2023/04/08 10:31:47;;;;;;;0.10;0.10;;;10.90;99.90;;;;;;5067555;28;20204;-79
2023/04/08 10:34:17;;;;;;;0.10;0.10;;;11.00;99.90;;;;;;5062491;28;20181;-80
2023/04/08 10:36:43;;;;;;;0.10;0.10;;;11.00;99.90;;;;;;5066734;28;20181;-80
2023/04/08 10:39:09;;;;;;;0.10;0.10;;;11.10;99.90;;;;;;5064503;28;20182;-80
2023/04/08 10:41:34;;;;;;;0.10;0.10;;;11.20;99.90;;;;;;5066542;28;20181;-80
2023/04/08 10:44:03;;;;;;;0.10;0.10;;;11.40;99.90;;;;;;5064492;28;20705;-80
2023/04/08 10:46:36;;;;;;;0.10;0.10;;;11.90;99.90;;;;;;5067600;28;20259;-80
2023/04/08 10:49:02;;;;;;;0.10;0.10;;;12.30;99.90;;;;;;5068588;28;20189;-80
2023/04/08 10:51:31;;;;;;;0.10;0.10;;;11.40;99.90;;;;;;5068584;28;20635;-80
2023/04/08 10:54:06;;;;;;;0.10;0.10;;;11.30;99.90;;;;;;5066051;28;20198;-79
2023/04/08 10:56:32;;;;;;;0.10;0.10;;;11.40;99.90;;;;;;5065152;28;20199;-80
2023/04/08 10:58:58;;;;;;;0.10;0.10;;;11.30;99.90;;;;;;5084470;28;20196;-80
2023/04/08 11:01:24;;;;;;;0.10;0.10;;;11.40;99.90;;;;;;5063225;28;20180;-80
2023/04/08 11:03:50;;;;;;;0.10;0.10;;;11.60;99.90;;;;;;5067208;28;20362;-80
2023/04/08 11:06:16;;;;;;;0.10;0.10;;;11.90;99.90;;;;;;5065621;28;20189;-80
2023/04/08 11:08:43;;;;;;;0.10;0.10;;;12.20;99.90;;;;;;5062698;28;20196;-80
2023/04/08 11:11:10;;;;;;;0.10;0.10;;;12.70;99.90;;;;;;5066239;28;20169;-80
2023/04/08 11:13:40;;;;;;;0.10;0.10;;;12.70;99.90;;;;;;5063618;28;20276;-80
2023/04/08 11:16:08;;;;;;;0.10;0.10;;;12.40;99.90;;;;;;5062044;28;20255;-80
2023/04/08 11:18:34;;;;;;;0.10;0.10;;;12.40;99.90;;;;;;5066551;28;20184;-80
2023/04/08 11:21:01;;;;;;;0.10;0.10;;;11.60;99.90;;;;;;5064352;28;20182;-80
2023/04/08 11:23:27;;;;;;;0.10;0.10;;;11.50;99.90;;;;;;5064865;28;20208;-80
2023/04/08 11:25:53;;;;;;;0.10;0.10;;;11.50;99.90;;;;;;5059631;28;20185;-80
2023/04/08 11:28:19;;;;;;;0.10;0.10;;;11.80;99.90;;;;;;5060077;28;20197;-80
2023/04/08 11:30:47;;;;;;;0.10;0.10;;;12.10;99.90;;;;;;5064459;28;20192;-80
2023/04/08 11:33:13;;;;;;;0.10;0.10;;;12.20;99.90;;;;;;5060709;28;20626;-80
2023/04/08 11:35:42;;;;;;;0.10;0.10;;;12.50;99.90;;;;;;5064792;28;20215;-80
2023/04/08 11:38:09;;;;;;;0.10;0.10;;;12.90;99.90;;;;;;5059107;28;20893;-80
2023/04/08 11:40:34;;;;;;;0.00;0.00;;;13.40;99.90;;;;;;5061293;28;20696;-80
2023/04/08 11:43:09;;;;;;;0.10;0.10;;;12.90;99.90;;;;;;5062883;28;20206;-79
2023/04/08 11:45:38;;;;;;;0.10;0.10;;;12.80;99.90;;;;;;5063388;28;20662;-80
2023/04/08 11:48:11;;;;;;;0.10;0.10;;;13.30;99.90;;;;;;5060204;28;20593;-81
2023/04/08 11:50:37;;;;;;;0.10;0.10;;;12.80;99.90;;;;;;5064262;28;20235;-80
2023/04/08 11:53:02;;;;;;;0.10;0.10;;;13.30;99.90;;;;;;5060400;28;20207;-80
2023/04/08 11:55:30;;;;;;;0.10;0.10;;;13.20;99.90;;;;;;5060731;28;20201;-81
2023/04/08 11:58:00;;;;;;;0.10;0.10;;;13.50;99.90;;;;;;5066068;28;20196;-81
2023/04/08 12:00:26;;;;;;;0.00;0.00;;;13.10;99.90;;;;;;5062578;28;20183;-80
2023/04/08 12:02:52;;;;;;;0.20;0.20;;;12.70;99.90;;;;;;5061800;28;20238;-80
2023/04/08 12:05:18;;;;;;;0.10;0.10;;;12.20;99.90;;;;;;5063433;28;20195;-81
2023/04/08 12:07:44;;;;;;;0.10;0.10;;;12.40;99.90;;;;;;5067278;28;20205;-81
2023/04/08 12:10:10;;;;;;;0.10;0.10;;;12.60;99.90;;;;;;5066351;28;20234;-81
2023/04/08 12:12:36;;;;;;;0.10;0.10;;;12.60;99.90;;;;;;5063169;28;20218;-81
2023/04/08 12:15:03;;;;;;;0.07;0.07;;;12.70;99.90;;;;;;5064789;28;20208;-81
2023/04/08 12:17:28;;;;;;;0.10;0.10;;;12.90;99.90;;;;;;5060762;28;20182;-81
2023/04/08 12:19:54;;;;;;;0.10;0.10;;;12.80;99.90;;;;;;5066159;28;20735;-81
2023/04/08 12:22:20;;;;;;;0.10;0.10;;;13.30;99.90;;;;;;5061871;28;20269;-81
2023/04/08 12:24:45;;;;;;;0.10;0.10;;;13.20;99.90;;;;;;5065608;28;20195;-81
2023/04/08 12:27:11;;;;;;;0.10;0.10;;;13.00;99.90;;;;;;5064886;28;20223;-80
2023/04/08 12:29:36;;;;;;;0.00;0.00;;;12.60;99.90;;;;;;5065477;28;20214;-81
2023/04/08 12:32:04;;;;;;;11.47;10.53;;;12.60;99.90;;;;;;5063471;28;20178;-81
2023/04/08 12:34:30;;;;;;;0.10;0.10;;;12.80;99.90;;;;;;5067606;28;20256;-81
2023/04/08 12:36:55;;;;;;;0.10;0.10;;;12.70;99.90;;;;;;5067095;28;20192;-81
2023/04/08 12:39:21;;;;;;;0.10;0.10;;;12.50;99.90;;;;;;5068357;28;21400;-81
2023/04/08 12:41:46;;;;;;;0.20;0.20;;;12.60;99.90;;;;;;5062615;28;20197;-81
2023/04/08 12:44:12;;;;;;;0.10;0.10;;;12.70;99.90;;;;;;5064133;28;20213;-81
2023/04/08 12:46:38;;;;;;;0.10;0.10;;;12.80;99.90;;;;;;5065724;28;20185;-81
2023/04/08 12:49:03;;;;;;;0.10;0.10;;;12.40;99.90;;;;;;5061941;28;20219;-81
2023/04/08 12:51:29;;;;;;;0.10;0.10;;;12.90;99.90;;;;;;5067704;28;20191;-81